Madrid, Spain

5:26 PM CET on November 26, 2014 (GMT +0100)
Barajas | Change Station
CLOSE
Current Station
Airport
Location: Madrid,
Elevation: 1909 ft
Nearby Weather Stations

Elev 1909 ft 40.47 °N, 3.56 °W | Updated 26 minutes ago

Partly Cloudy
Partly Cloudy
54 °F
Feels Like 54 °F
N
7
Wind Variable Wind from SSW
Gusts 21 mph

Today
High -- | Low -- °F
--% Chance of Precip.
Yesterday
High -- | Low -- °F
Precip. -- in
8:12 AM 5:50 PM
Waxing Crescent, 21% visible
Pressure 29.86 in
Visibility 6.2 miles
Clouds Few 4200 ft
Dew Point 39 °F
Humidity 58%
Rainfall 0.00 in
Snow Depth Not available.
UV 0 out of 12
Pollen Not available.
Air Quality Not available.
Flu Activity Not available.
METAR LEMD 261600Z 21006G18KT 170V330 9999 FEW042 12/04 Q1011 NOSIG

More Conditions Fewer Conditions

Pressure 29.86 in
Visibility 6.2 miles
Clouds Few 4200 ft
Dew Point 39 °F
Humidity 58%
Rainfall 0.00 in
Snow Depth Not available.
UV 0 out of 12
Pollen Not available.
Air Quality Not available.
Flu Activity Not available.
METAR LEMD 261600Z 21006G18KT 170V330 9999 FEW042 12/04 Q1011 NOSIG

More Conditions Fewer Conditions

10-Day Weather Forecast

Almanac

Astronomy

Nov. 26, 2014 Rise Set
Actual Time
Civil Twilight
Nautical Twilight
Astronomical Twilight
Moon
Length of Visible Light
Length of Day
Tomorrow will be .
, % of the Moon is Illuminated

Today's Extremes

Country Highs Country Lows

Community

WunderPhotos

Upload Photos

1,773,784 photos uploaded!

WunderBlogs® & News

Nearby

Air Quality

  Air Quality AQ Index Pollutant
Not available.

Snow Depth

Station Depth Elevation

Earthquake Activity

City Distance Mag. Time & Date
Minimum magnitude displayed is 2.5.

Coastal Water Temperatures

Place Temperature

Nearby Weather Stations